Close

Questo sito utlizza cookie. Può leggere come li usiamo nella nostra Privacy Policy.

Ronchi Tower
Ronchi Tower

From Facebook

METAR & TAF

2019/03/20 00:50 LIPQ 200050Z AUTO 08004KT 9999 NCD 07/M01 Q1028
2019/03/19 18:25 TAF LIPQ 191700Z 1918/2018 08013KT CAVOK
2019/03/20 00:50 LIPZ 200050Z 01009KT CAVOK 06/00 Q1028 NOSIG
2019/03/19 18:21 TAF LIPZ 191700Z 1918/2024 08012KT CAVOK
2019/03/20 00:50 LIPH 200050Z AUTO 36005KT 9999 NCD 06/00 Q1028
2019/03/19 18:25 TAF LIPH 191700Z 1918/2018 10007KT 9999 FEW020 BECMG 2000/2002 02010KT
2019/03/20 00:50 LIRF 200050Z 06007KT CAVOK 07/02 Q1020 NOSIG
2019/03/19 18:23 TAF LIRF 191700Z 1918/2024 02012KT 9999 SCT040
2019/03/20 00:50 LIML 200050Z 02004KT CAVOK 05/M01 Q1028 NOSIG
2019/03/19 18:21 TAF TAF LIML 191700Z 1918/2018 VRB05KT CAVOK
2019/03/20 00:50 EDDM 200050Z 00000KT CAVOK M02/M03 Q1031 NOSIG
2019/03/19 18:27 TAF EDDM 191700Z 1918/2024 VRB02KT CAVOK BECMG 2008/2010 08005KT BECMG 2017/2019 VRB02KT
2019/03/20 00:50 EGSS 200050Z AUTO 24006KT 9999 FEW049 08/07 Q1030
2019/03/19 20:47 TAF AMD EGSS 192040Z 1920/2024 24006KT 9999 SCT025 TEMPO 1920/2001 7000 BECMG 2001/2004 7000 BKN006 TEMPO 2003/2011 4000 BR BKN004 BECMG 2011/2014 9999 SCT022
2019/03/20 00:50 EDDF 200050Z 22002KT CAVOK M02/M03 Q1032 NOSIG
2019/03/19 18:28 TAF EDDF 191700Z 1918/2024 VRB02KT CAVOK TEMPO 2012/2018 36005KT

FlightRadar24

Radar Meteo

Traffic data

Giugno 2018

Passeggeri: 74680+1,1% (rank: 23)
Nazionali 44157 -10,8
Internazionali 30296 +26%

Movimenti: 1555+8,6% (rank: 22)
Tot commerciale 742 -12,4%
Aviazione generale 8123 +39%

Cargo (tons): 33,2+91,5% (rank: 20)

Gennaio - Giugno 2018

Passeggeri: 368119+0,8% (rank: 23)
Nazionali 244071 -0,1%
Internazionali 122775 +2,6%

Movimenti: 7369-7,8% (rank: 22)
Tot commerciale 4018 -10,4%
Aviazione generale 3351 -4,4%

Cargo (tons): 240,1+56% (rank: 20)

Photo

Douglas DC-6B
Douglas DC-6B
Distinct views: 20
Douglas DC-6B
Douglas DC-6B
Distinct views: 89
Douglas DC-6B
Douglas DC-6B
Distinct views: 240
Apron
Apron
Total views: 1184